Aviation Digital Data Service (ADDS)

Output produced by METARs form (2311 UTC 24 May 2018)
found at http://aviationweather.gov/adds/metars/
 
METAR text: EYKA 242250Z AUTO 01005KT 9999 NCD 15/09 Q1023
Conditions at: EYKA (KAUNAS , LT) observed 2250 UTC 24 May 2018
Temperature: 15.0°C (59°F)
Dewpoint: 9.0°C (48°F) [RH = 67%]
Pressure (altimeter): 30.21 inches Hg (1023.0 mb)
Winds: from the N (10 degrees) at 6 MPH (5 knots; 2.6 m/s)
Visibility: 6 or more miles (10+ km)
Ceiling: at least 12,000 feet AGL
Clouds: sky clear below 12,000 feet AGL
Weather: no significant weather observed at this time

METAR text: EYKA 242220Z AUTO 36006KT 9999 NCD 15/09 Q1023
Conditions at: EYKA (KAUNAS , LT) observed 2220 UTC 24 May 2018
Temperature: 15.0°C (59°F)
Dewpoint: 9.0°C (48°F) [RH = 67%]
Pressure (altimeter): 30.21 inches Hg (1023.0 mb)
Winds: from the N (360 degrees) at 7 MPH (6 knots; 3.1 m/s)
Visibility: 6 or more miles (10+ km)
Ceiling: at least 12,000 feet AGL
Clouds: sky clear below 12,000 feet AGL
Weather: no significant weather observed at this time

METAR text: EYKA 242150Z AUTO 35003KT 310V020 9999 NCD 16/10 Q1023
Conditions at: EYKA (KAUNAS , LT) observed 2150 UTC 24 May 2018
Temperature: 16.0°C (61°F)
Dewpoint: 10.0°C (50°F) [RH = 68%]
Pressure (altimeter): 30.21 inches Hg (1023.0 mb)
Winds: from the N (350 degrees) at 3 MPH (3 knots; 1.6 m/s)
Visibility: 6 or more miles (10+ km)
Ceiling: at least 12,000 feet AGL
Clouds: sky clear below 12,000 feet AGL
Weather: no significant weather observed at this time

METAR text: EYKA 242120Z AUTO 01004KT 350V060 9999 NCD 17/10 Q1023
Conditions at: EYKA (KAUNAS , LT) observed 2120 UTC 24 May 2018
Temperature: 17.0°C (63°F)
Dewpoint: 10.0°C (50°F) [RH = 63%]
Pressure (altimeter): 30.21 inches Hg (1023.0 mb)
Winds: from the N (10 degrees) at 5 MPH (4 knots; 2.1 m/s)
Visibility: 6 or more miles (10+ km)
Ceiling: at least 12,000 feet AGL
Clouds: sky clear below 12,000 feet AGL
Weather: no significant weather observed at this time

Forecast for: EYKA (KAUNAS , LT)
Text: TAF EYKA 242302Z 2500/2524 VRB05KT 9000 NSC
Forecast period: 0000 UTC 25 May 2018 to 0000 UTC 26 May 2018
Forecast type: FROM: standard forecast or significant change
Winds: variable direction winds at 6 MPH (5 knots; 2.6 m/s)
Visibility: 6 miles (9 km)
Clouds: not forecast
Weather: no significant weather forecast for this period
Text: TEMPO 2508/2518 09015G25KT SCT030CB
Forecast period: 0800 to 1800 UTC 25 May 2018
Forecast type: TEMPORARY: The following changes expected for less than half the time period
Winds: from the E (90 degrees) at 17 MPH (15 knots; 7.8 m/s)
gusting to 29 MPH (25 knots; 13.0 m/s)
Clouds: scattered clouds at 3000 feet AGL
Weather: no significant weather forecast for this period